Time;durP1;ratioP1;P1;durP2;ratioP2;P2;SDS_P1;SDS_P2;PMS_P1;PMS_P2;Temp;Humidity;BMP_temperature;BMP_pressure;BME280_temperature;BME280_humidity;BME280_pressure;Samples;Min_cycle;Max_cycle;Signal;HPM_P1;HPM_P2
2023/01/18 00:00:28;;;;;;;21.35;19.35;;;;;;;;;;5053745;28;20460;-83
2023/01/18 00:02:54;;;;;;;20.55;18.63;;;;;;;;;;5052624;28;20469;-80
2023/01/18 00:05:24;;;;;;;20.17;18.33;;;;;;;;;;5052748;28;20819;-82
2023/01/18 00:07:51;;;;;;;20.85;18.60;;;;;;;;;;5071547;28;20386;-82
2023/01/18 00:10:17;;;;;;;20.77;18.77;;;;;;;;;;5070806;28;20427;-81
2023/01/18 00:12:43;;;;;;;22.90;20.48;;;;;;;;;;5070864;28;20388;-81
2023/01/18 00:15:09;;;;;;;22.75;20.38;;;;;;;;;;5084976;28;20370;-81
2023/01/18 00:17:46;;;;;;;24.02;21.52;;;;;;;;;;5087377;28;20476;-81
2023/01/18 00:20:13;;;;;;;24.30;21.80;;;;;;;;;;5083545;28;20399;-81
2023/01/18 00:22:39;;;;;;;23.83;21.33;;;;;;;;;;5085124;28;20374;-81
2023/01/18 00:25:05;;;;;;;22.13;19.98;;;;;;;;;;5088727;28;20408;-81
2023/01/18 00:27:31;;;;;;;21.63;19.52;;;;;;;;;;5074379;28;20383;-81
2023/01/18 00:29:58;;;;;;;19.58;17.67;;;;;;;;;;5072597;28;20387;-81
2023/01/18 00:32:24;;;;;;;19.40;17.52;;;;;;;;;;5072689;28;20375;-81
2023/01/18 00:34:50;;;;;;;20.15;18.25;;;;;;;;;;5072613;28;20411;-81
2023/01/18 00:37:16;;;;;;;19.02;17.23;;;;;;;;;;5072550;28;20411;-81
2023/01/18 00:39:42;;;;;;;17.70;16.17;;;;;;;;;;5074800;28;20870;-81
2023/01/18 00:44:53;;;;;;;17.95;16.42;;;;;;;;;;5072082;28;20367;-81
2023/01/18 00:47:19;;;;;;;18.13;16.52;;;;;;;;;;5054444;28;20387;-81
2023/01/18 00:49:45;;;;;;;17.87;16.33;;;;;;;;;;5072155;28;20382;-81
2023/01/18 00:52:11;;;;;;;20.63;18.63;;;;;;;;;;5072219;28;20424;-81
2023/01/18 00:54:37;;;;;;;20.17;18.33;;;;;;;;;;5072155;28;20476;-81
2023/01/18 00:57:03;;;;;;;22.83;20.42;;;;;;;;;;5072101;28;20383;-81
2023/01/18 00:59:29;;;;;;;22.95;20.60;;;;;;;;;;5072170;28;20745;-81
2023/01/18 01:01:55;;;;;;;22.58;20.27;;;;;;;;;;5072232;28;20376;-81
2023/01/18 01:07:10;;;;;;;20.40;18.40;;;;;;;;;;5043308;28;20383;-81
2023/01/18 01:09:36;;;;;;;21.25;19.23;;;;;;;;;;5071911;28;20453;-81
2023/01/18 01:26:07;;;;;;;18.55;16.85;;;;;;;;;;5075923;28;20459;-81
2023/01/18 01:28:36;;;;;;;18.50;16.80;;;;;;;;;;5071780;28;20458;-82
2023/01/18 01:31:03;;;;;;;17.13;15.63;;;;;;;;;;5068490;28;20376;-81
2023/01/18 01:33:30;;;;;;;17.50;16.00;;;;;;;;;;5071707;28;20418;-81
2023/01/18 01:35:56;;;;;;;17.92;16.35;;;;;;;;;;5071741;28;20869;-81
2023/01/18 01:38:22;;;;;;;19.50;17.70;;;;;;;;;;5071495;28;20873;-81
2023/01/18 01:41:03;;;;;;;19.33;17.52;;;;;;;;;;5071596;28;20390;-81
2023/01/18 01:43:48;;;;;;;19.23;17.33;;;;;;;;;;5071570;28;21015;-81
2023/01/18 01:46:17;;;;;;;19.92;18.10;;;;;;;;;;5071579;28;20480;-81
2023/01/18 01:48:43;;;;;;;18.67;16.92;;;;;;;;;;5071454;28;20408;-81
2023/01/18 01:51:09;;;;;;;17.33;15.82;;;;;;;;;;5068978;28;20466;-82
2023/01/18 01:53:35;;;;;;;17.95;16.25;;;;;;;;;;5068985;28;20398;-81
2023/01/18 01:56:03;;;;;;;18.77;17.10;;;;;;;;;;5071581;28;21101;-81
2023/01/18 01:58:30;;;;;;;17.30;15.80;;;;;;;;;;5071571;28;20993;-81
2023/01/18 02:00:56;;;;;;;19.73;17.90;;;;;;;;;;5071376;28;20419;-82
2023/01/18 02:03:23;;;;;;;20.65;18.65;;;;;;;;;;5071137;28;20408;-82
2023/01/18 02:05:54;;;;;;;18.95;17.17;;;;;;;;;;5062554;28;20410;-82
2023/01/18 02:08:23;;;;;;;18.90;17.15;;;;;;;;;;5071400;28;20431;-82
2023/01/18 02:10:50;;;;;;;19.02;17.33;;;;;;;;;;5071054;28;20444;-81
2023/01/18 02:13:16;;;;;;;19.95;17.98;;;;;;;;;;5071346;28;20376;-81
2023/01/18 02:16:02;;;;;;;20.30;18.30;;;;;;;;;;5078761;28;20934;-81
2023/01/18 02:18:33;;;;;;;20.58;18.58;;;;;;;;;;5062379;28;20921;-82
2023/01/18 02:21:05;;;;;;;22.05;19.85;;;;;;;;;;5089913;28;20422;-81
2023/01/18 02:23:45;;;;;;;22.70;20.30;;;;;;;;;;5087171;28;20427;-81
2023/01/18 02:26:30;;;;;;;23.02;20.63;;;;;;;;;;5092045;28;20405;-81
2023/01/18 02:29:16;;;;;;;23.00;20.63;;;;;;;;;;5075016;28;20367;-82
2023/01/18 02:31:48;;;;;;;23.00;20.70;;;;;;;;;;5077327;28;20380;-81
2023/01/18 02:34:25;;;;;;;22.95;20.52;;;;;;;;;;5077672;28;20378;-82
2023/01/18 02:36:51;;;;;;;23.43;21.03;;;;;;;;;;5074962;28;20465;-82
2023/01/18 02:39:30;;;;;;;22.52;20.13;;;;;;;;;;5074787;28;20719;-81
2023/01/18 02:47:32;;;;;;;24.45;21.77;;;;;;;;;;5075066;28;20498;-81
2023/01/18 02:49:58;;;;;;;25.27;22.08;;;;;;;;;;5074584;28;20470;-81
2023/01/18 02:52:40;;;;;;;24.45;21.73;;;;;;;;;;5074633;28;20367;-82
2023/01/18 02:55:08;;;;;;;23.25;20.75;;;;;;;;;;5074498;28;20379;-81
2023/01/18 02:57:35;;;;;;;24.83;21.90;;;;;;;;;;5074556;28;20406;-82
2023/01/18 03:00:02;;;;;;;23.75;21.17;;;;;;;;;;5048251;28;20386;-81
2023/01/18 03:02:28;;;;;;;22.88;20.48;;;;;;;;;;5071670;28;20943;-81
2023/01/18 03:04:54;;;;;;;23.70;21.20;;;;;;;;;;5070614;28;20413;-81
2023/01/18 03:07:35;;;;;;;21.95;19.60;;;;;;;;;;5069745;28;20383;-82
2023/01/18 03:10:02;;;;;;;20.02;18.15;;;;;;;;;;5073833;28;20451;-81
2023/01/18 03:12:47;;;;;;;18.48;16.73;;;;;;;;;;5074280;28;20454;-82
2023/01/18 03:15:13;;;;;;;16.98;15.38;;;;;;;;;;5066570;28;20409;-82
2023/01/18 03:17:42;;;;;;;18.07;16.33;;;;;;;;;;5052001;28;20405;-81
2023/01/18 03:20:13;;;;;;;17.38;15.77;;;;;;;;;;5072868;28;20431;-82
2023/01/18 03:25:28;;;;;;;17.10;15.52;;;;;;;;;;5072741;28;20549;-82
2023/01/18 03:33:43;;;;;;;19.55;17.55;;;;;;;;;;5081348;28;20419;-81
2023/01/18 03:36:12;;;;;;;18.38;16.58;;;;;;;;;;5090440;28;20469;-82
2023/01/18 03:38:38;;;;;;;16.52;14.93;;;;;;;;;;5076561;28;20413;-82
2023/01/18 03:41:06;;;;;;;16.25;14.75;;;;;;;;;;5073697;28;20386;-82
2023/01/18 03:43:36;;;;;;;15.90;14.50;;;;;;;;;;5073694;28;20376;-82
2023/01/18 03:46:02;;;;;;;15.82;14.38;;;;;;;;;;5072527;28;20452;-82
2023/01/18 03:48:28;;;;;;;14.55;13.35;;;;;;;;;;5071541;28;20933;-82
2023/01/18 03:51:01;;;;;;;14.30;13.10;;;;;;;;;;5073504;28;20390;-81
2023/01/18 03:53:31;;;;;;;13.50;12.40;;;;;;;;;;5073603;28;20375;-81
2023/01/18 03:56:01;;;;;;;13.50;12.40;;;;;;;;;;5073381;28;20383;-82
2023/01/18 03:58:32;;;;;;;12.05;11.05;;;;;;;;;;5073166;28;20384;-82
2023/01/18 04:00:58;;;;;;;11.43;10.32;;;;;;;;;;5073242;28;20379;-82
2023/01/18 04:03:24;;;;;;;11.98;10.93;;;;;;;;;;5073292;28;20379;-82
2023/01/18 04:05:50;;;;;;;11.23;10.25;;;;;;;;;;5064390;28;20422;-82
2023/01/18 04:08:20;;;;;;;11.30;10.40;;;;;;;;;;5073179;28;20383;-81
2023/01/18 04:10:46;;;;;;;11.10;10.15;;;;;;;;;;5072791;28;20462;-82
2023/01/18 04:13:12;;;;;;;11.65;10.65;;;;;;;;;;5073018;28;20388;-82
2023/01/18 04:15:38;;;;;;;10.65;9.75;;;;;;;;;;5073019;28;20384;-81
2023/01/18 04:18:05;;;;;;;10.40;9.50;;;;;;;;;;5072778;28;20428;-81
2023/01/18 04:20:31;;;;;;;10.48;9.57;;;;;;;;;;5072855;28;20403;-82
2023/01/18 04:22:57;;;;;;;11.23;10.27;;;;;;;;;;5072876;28;20380;-82
2023/01/18 04:25:23;;;;;;;10.23;9.43;;;;;;;;;;5072761;28;20415;-82
2023/01/18 04:27:49;;;;;;;10.40;9.60;;;;;;;;;;5080089;28;20455;-81
2023/01/18 04:30:15;;;;;;;10.85;9.85;;;;;;;;;;5086128;28;20407;-81
2023/01/18 04:32:44;;;;;;;10.20;9.40;;;;;;;;;;5082505;28;20465;-82
2023/01/18 04:35:10;;;;;;;9.98;9.18;;;;;;;;;;5086951;28;20443;-82
2023/01/18 04:37:37;;;;;;;11.18;10.18;;;;;;;;;;5085788;28;20863;-82
2023/01/18 04:40:03;;;;;;;11.80;10.80;;;;;;;;;;5080013;28;20452;-82
2023/01/18 04:42:29;;;;;;;12.20;11.10;;;;;;;;;;5072544;28;20380;-82
2023/01/18 04:44:55;;;;;;;13.20;11.90;;;;;;;;;;5069474;28;20388;-81
2023/01/18 04:47:21;;;;;;;11.80;10.77;;;;;;;;;;5058568;28;20372;-82
2023/01/18 04:49:47;;;;;;;13.27;12.07;;;;;;;;;;5066448;28;20384;-81
2023/01/18 04:52:13;;;;;;;12.43;11.27;;;;;;;;;;5072385;28;20450;-81
2023/01/18 04:54:39;;;;;;;12.90;11.60;;;;;;;;;;5069917;28;20394;-81
2023/01/18 04:57:05;;;;;;;12.35;11.25;;;;;;;;;;5057304;28;20386;-81
2023/01/18 04:59:31;;;;;;;11.93;10.82;;;;;;;;;;5053466;28;20811;-81
2023/01/18 05:01:57;;;;;;;12.80;11.60;;;;;;;;;;5051397;28;20445;-81
2023/01/18 05:04:23;;;;;;;12.80;11.50;;;;;;;;;;5056413;28;20400;-81
2023/01/18 05:06:49;;;;;;;11.77;10.68;;;;;;;;;;5059347;28;20405;-82
2023/01/18 05:09:15;;;;;;;11.38;10.38;;;;;;;;;;5054326;28;20372;-82
2023/01/18 05:11:44;;;;;;;11.37;10.27;;;;;;;;;;5052048;28;20504;-82
2023/01/18 05:14:10;;;;;;;10.63;9.73;;;;;;;;;;5052610;28;20464;-81
2023/01/18 05:16:36;;;;;;;9.50;8.70;;;;;;;;;;5051389;28;20377;-81
2023/01/18 05:19:02;;;;;;;9.23;8.43;;;;;;;;;;5055087;28;20382;-81
2023/01/18 05:21:28;;;;;;;9.48;8.55;;;;;;;;;;5053231;28;20385;-82
2023/01/18 05:23:54;;;;;;;8.35;7.65;;;;;;;;;;5058004;28;20871;-83
2023/01/18 05:26:21;;;;;;;8.27;7.57;;;;;;;;;;5056198;28;20409;-80
2023/01/18 05:28:47;;;;;;;8.18;7.47;;;;;;;;;;5053937;28;20385;-80
2023/01/18 05:31:14;;;;;;;7.70;7.10;;;;;;;;;;5052917;28;20377;-81
2023/01/18 05:33:40;;;;;;;7.47;6.88;;;;;;;;;;5052151;28;20405;-81
2023/01/18 05:36:06;;;;;;;7.20;6.60;;;;;;;;;;5051155;28;20498;-81
2023/01/18 05:38:33;;;;;;;6.82;6.32;;;;;;;;;;5060121;28;20392;-81
2023/01/18 05:40:59;;;;;;;7.05;6.50;;;;;;;;;;5084200;28;20401;-81
2023/01/18 05:43:25;;;;;;;8.17;7.47;;;;;;;;;;5070454;28;20379;-81
2023/01/18 05:45:51;;;;;;;8.05;7.45;;;;;;;;;;5060227;28;20906;-81
2023/01/18 05:48:18;;;;;;;8.48;7.68;;;;;;;;;;5060475;28;20905;-81
2023/01/18 05:50:44;;;;;;;8.65;7.95;;;;;;;;;;5052574;28;20390;-82
2023/01/18 05:53:11;;;;;;;9.02;8.13;;;;;;;;;;5050673;28;20704;-82
2023/01/18 05:55:37;;;;;;;8.57;7.88;;;;;;;;;;5054994;28;20872;-82
2023/01/18 05:58:03;;;;;;;8.85;8.13;;;;;;;;;;5052513;28;20400;-82
2023/01/18 06:00:29;;;;;;;8.55;7.85;;;;;;;;;;5055693;28;20895;-82
2023/01/18 06:02:55;;;;;;;8.63;7.93;;;;;;;;;;5052210;28;20465;-82
2023/01/18 06:05:22;;;;;;;7.50;6.90;;;;;;;;;;5056491;28;20537;-82
2023/01/18 06:07:48;;;;;;;8.00;7.20;;;;;;;;;;5070510;28;20391;-82
2023/01/18 06:10:14;;;;;;;7.57;6.97;;;;;;;;;;5071007;28;20403;-82
2023/01/18 06:12:40;;;;;;;6.80;6.25;;;;;;;;;;5067735;28;20392;-82
2023/01/18 06:15:07;;;;;;;6.40;5.90;;;;;;;;;;5071307;28;20414;-82
2023/01/18 06:17:33;;;;;;;6.60;6.10;;;;;;;;;;5071230;28;20466;-80
2023/01/18 06:20:00;;;;;;;6.10;5.57;;;;;;;;;;5067991;28;20391;-81
2023/01/18 06:22:26;;;;;;;6.20;5.70;;;;;;;;;;5051033;28;20381;-82
2023/01/18 06:24:52;;;;;;;5.90;5.40;;;;;;;;;;5051058;28;20373;-80
2023/01/18 06:27:18;;;;;;;6.18;5.68;;;;;;;;;;5049940;28;20412;-81
2023/01/18 06:29:44;;;;;;;5.45;5.05;;;;;;;;;;5052132;28;20390;-82
2023/01/18 06:32:10;;;;;;;5.28;4.88;;;;;;;;;;5064388;28;20735;-82
2023/01/18 06:34:36;;;;;;;5.40;4.90;;;;;;;;;;5051199;28;20380;-82
2023/01/18 06:37:02;;;;;;;5.40;5.00;;;;;;;;;;5064258;28;20450;-82
2023/01/18 06:39:29;;;;;;;5.07;4.67;;;;;;;;;;5059677;28;20383;-81
2023/01/18 06:41:55;;;;;;;4.53;4.22;;;;;;;;;;5070793;28;20380;-81
2023/01/18 06:44:21;;;;;;;4.20;3.90;;;;;;;;;;5071047;28;20430;-81
2023/01/18 06:46:47;;;;;;;5.00;4.50;;;;;;;;;;5072396;28;20406;-82
2023/01/18 06:49:13;;;;;;;4.65;4.25;;;;;;;;;;5070997;28;20426;-81
2023/01/18 06:51:39;;;;;;;5.60;5.10;;;;;;;;;;5057204;28;20390;-82
2023/01/18 06:54:06;;;;;;;4.65;4.30;;;;;;;;;;5070371;28;20417;-82
2023/01/18 06:56:32;;;;;;;4.18;3.78;;;;;;;;;;5083737;28;20389;-82
2023/01/18 06:58:59;;;;;;;4.20;3.80;;;;;;;;;;5075010;28;20401;-81
2023/01/18 07:01:25;;;;;;;3.85;3.55;;;;;;;;;;5070424;28;20441;-82
2023/01/18 07:03:51;;;;;;;3.60;3.30;;;;;;;;;;5055345;28;20494;-82
2023/01/18 07:06:18;;;;;;;3.70;3.40;;;;;;;;;;5061567;28;20409;-82
2023/01/18 07:08:44;;;;;;;4.10;3.78;;;;;;;;;;5053502;28;20530;-81
2023/01/18 07:11:11;;;;;;;4.40;4.00;;;;;;;;;;5055016;28;20504;-80
2023/01/18 07:13:42;;;;;;;4.93;4.53;;;;;;;;;;5054569;28;20385;-80
2023/01/18 07:16:16;;;;;;;5.00;4.60;;;;;;;;;;5072773;28;20376;-80
2023/01/18 07:18:44;;;;;;;5.57;5.18;;;;;;;;;;5074309;28;20807;-80
2023/01/18 07:21:10;;;;;;;5.82;5.32;;;;;;;;;;5073856;28;20387;-81
2023/01/18 07:23:37;;;;;;;5.55;5.15;;;;;;;;;;5074067;28;20371;-81
2023/01/18 07:26:06;;;;;;;4.88;4.57;;;;;;;;;;5073782;28;20465;-81
2023/01/18 07:28:33;;;;;;;5.55;5.15;;;;;;;;;;5073963;28;20374;-80
2023/01/18 07:30:59;;;;;;;5.55;5.15;;;;;;;;;;5073277;28;20419;-80
2023/01/18 07:33:25;;;;;;;5.13;4.72;;;;;;;;;;5071459;28;20372;-80
2023/01/18 07:35:52;;;;;;;5.47;5.07;;;;;;;;;;5073906;28;20372;-80
2023/01/18 07:38:18;;;;;;;5.80;5.40;;;;;;;;;;5070372;28;20387;-80
2023/01/18 07:40:45;;;;;;;5.53;5.13;;;;;;;;;;5073136;28;20463;-81
2023/01/18 07:43:11;;;;;;;5.28;4.93;;;;;;;;;;5077456;28;20376;-80
2023/01/18 07:45:37;;;;;;;4.60;4.30;;;;;;;;;;5073553;28;20528;-80
2023/01/18 07:48:04;;;;;;;5.20;4.80;;;;;;;;;;5073522;28;20451;-80
2023/01/18 07:50:32;;;;;;;4.85;4.55;;;;;;;;;;5073289;28;20376;-80
2023/01/18 07:53:03;;;;;;;4.30;4.00;;;;;;;;;;5073500;28;20372;-80
2023/01/18 07:55:29;;;;;;;4.28;3.97;;;;;;;;;;5073058;28;20380;-80
2023/01/18 07:57:55;;;;;;;3.55;3.35;;;;;;;;;;5073396;28;20413;-80
2023/01/18 08:00:21;;;;;;;3.90;3.60;;;;;;;;;;5073581;28;20407;-80
2023/01/18 08:02:49;;;;;;;3.83;3.63;;;;;;;;;;5072901;28;20380;-80
2023/01/18 08:05:19;;;;;;;3.60;3.30;;;;;;;;;;5068523;28;20766;-80
2023/01/18 08:07:45;;;;;;;4.10;3.80;;;;;;;;;;5068334;28;20407;-80
2023/01/18 08:10:11;;;;;;;2.75;2.55;;;;;;;;;;5072817;28;20408;-80
2023/01/18 08:12:37;;;;;;;3.05;2.85;;;;;;;;;;5071020;28;20396;-80
2023/01/18 08:15:03;;;;;;;3.75;3.45;;;;;;;;;;5061712;28;20376;-80
2023/01/18 08:17:29;;;;;;;3.40;3.20;;;;;;;;;;5073241;28;20403;-80
2023/01/18 08:19:55;;;;;;;2.50;2.40;;;;;;;;;;5072845;28;20375;-81
2023/01/18 08:22:21;;;;;;;2.58;2.42;;;;;;;;;;5072970;28;20383;-81
2023/01/18 08:24:47;;;;;;;1.90;1.80;;;;;;;;;;5072758;28;20857;-80
2023/01/18 08:27:13;;;;;;;1.60;1.50;;;;;;;;;;5072884;28;20403;-80
2023/01/18 08:29:39;;;;;;;1.50;1.40;;;;;;;;;;5072843;28;20382;-81
2023/01/18 08:32:05;;;;;;;1.30;1.20;;;;;;;;;;5072776;28;20390;-81
2023/01/18 08:34:31;;;;;;;1.50;1.40;;;;;;;;;;5072403;28;20376;-81
2023/01/18 08:36:57;;;;;;;1.65;1.40;;;;;;;;;;5075323;28;20797;-81
2023/01/18 08:39:23;;;;;;;1.73;1.40;;;;;;;;;;5072599;28;20395;-81
2023/01/18 08:41:50;;;;;;;1.80;1.58;;;;;;;;;;5072530;28;20375;-81
2023/01/18 08:44:16;;;;;;;1.50;1.40;;;;;;;;;;5072684;28;20868;-80
2023/01/18 08:46:42;;;;;;;1.60;1.38;;;;;;;;;;5072589;28;20403;-80
2023/01/18 08:49:08;;;;;;;1.45;1.35;;;;;;;;;;5069859;28;20722;-80
2023/01/18 08:51:34;;;;;;;1.33;1.23;;;;;;;;;;5072819;28;20400;-80
2023/01/18 08:54:00;;;;;;;1.25;1.20;;;;;;;;;;5088340;28;20973;-80
2023/01/18 08:56:27;;;;;;;1.30;1.20;;;;;;;;;;5071610;28;20848;-81
2023/01/18 08:58:53;;;;;;;1.50;1.40;;;;;;;;;;5072286;28;20399;-81
2023/01/18 09:01:21;;;;;;;1.58;1.48;;;;;;;;;;5072215;28;20379;-81
2023/01/18 09:03:49;;;;;;;1.52;1.20;;;;;;;;;;5072298;28;20452;-81
2023/01/18 09:06:16;;;;;;;1.38;1.27;;;;;;;;;;5063347;28;20517;-81
2023/01/18 09:08:42;;;;;;;1.13;1.02;;;;;;;;;;5071028;28;20412;-84
2023/01/18 09:11:09;;;;;;;16.83;10.95;;;;;;;;;;5070036;28;20400;-83
2023/01/18 09:13:37;;;;;;;4.35;3.40;;;;;;;;;;5071832;28;20433;-83
2023/01/18 09:16:06;;;;;;;2.20;1.57;;;;;;;;;;5071853;28;20427;-83
2023/01/18 09:18:32;;;;;;;1.33;1.23;;;;;;;;;;5071949;28;20475;-83
2023/01/18 09:20:58;;;;;;;1.30;1.20;;;;;;;;;;5071792;28;20383;-83
2023/01/18 09:23:25;;;;;;;1.35;1.25;;;;;;;;;;5069402;28;20384;-83
2023/01/18 09:26:15;;;;;;;1.85;1.40;;;;;;;;;;5066461;28;20969;-83
2023/01/18 09:28:42;;;;;;;1.67;1.50;;;;;;;;;;5071647;28;20376;-83
2023/01/18 09:31:08;;;;;;;1.50;1.40;;;;;;;;;;5070936;28;20376;-83
2023/01/18 09:33:35;;;;;;;1.65;1.55;;;;;;;;;;5071753;28;20394;-83
2023/01/18 09:36:02;;;;;;;2.20;2.00;;;;;;;;;;5071816;28;20375;-83
2023/01/18 09:38:29;;;;;;;1.58;1.48;;;;;;;;;;5071687;28;20394;-84
2023/01/18 09:40:55;;;;;;;1.40;1.30;;;;;;;;;;5071588;28;20787;-83
2023/01/18 09:43:43;;;;;;;1.88;1.67;;;;;;;;;;5072015;28;20372;-83
2023/01/18 09:46:16;;;;;;;2.08;1.98;;;;;;;;;;5071918;28;20494;-82
2023/01/18 09:48:42;;;;;;;1.65;1.55;;;;;;;;;;5068941;28;20441;-83
2023/01/18 09:51:11;;;;;;;1.57;1.47;;;;;;;;;;5071534;28;20431;-83
2023/01/18 09:53:46;;;;;;;1.60;1.50;;;;;;;;;;5071576;28;20387;-83
2023/01/18 09:56:14;;;;;;;1.50;1.40;;;;;;;;;;5071424;28;20451;-83
2023/01/18 09:58:58;;;;;;;1.65;1.55;;;;;;;;;;5071643;28;20417;-84
2023/01/18 10:01:26;;;;;;;1.70;1.60;;;;;;;;;;5071445;28;20439;-84
2023/01/18 10:03:54;;;;;;;1.60;1.50;;;;;;;;;;5071487;28;21021;-84
2023/01/18 10:06:36;;;;;;;1.98;1.50;;;;;;;;;;5062166;28;20485;-84
2023/01/18 10:09:04;;;;;;;2.38;2.17;;;;;;;;;;5067641;28;20409;-84
2023/01/18 10:11:33;;;;;;;1.92;1.38;;;;;;;;;;5052755;28;20447;-83
2023/01/18 10:14:02;;;;;;;2.45;1.80;;;;;;;;;;5056576;28;20396;-83
2023/01/18 10:16:29;;;;;;;2.00;1.90;;;;;;;;;;5063442;28;20428;-83
2023/01/18 10:19:00;;;;;;;2.00;1.60;;;;;;;;;;5062770;28;20386;-83
2023/01/18 10:21:26;;;;;;;1.80;1.70;;;;;;;;;;5066143;28;20987;-84
2023/01/18 10:24:18;;;;;;;2.13;1.93;;;;;;;;;;5071372;28;20506;-84
2023/01/18 10:26:44;;;;;;;2.67;2.35;;;;;;;;;;5066987;28;20403;-83
2023/01/18 10:29:14;;;;;;;2.60;2.03;;;;;;;;;;5071214;28;20466;-85
2023/01/18 10:31:56;;;;;;;1.92;1.60;;;;;;;;;;5071144;28;20378;-84
2023/01/18 10:34:23;;;;;;;2.10;1.85;;;;;;;;;;5071155;28;20455;-83
2023/01/18 10:36:54;;;;;;;2.22;1.83;;;;;;;;;;5077018;28;20736;-83
2023/01/18 10:39:30;;;;;;;2.65;1.95;;;;;;;;;;5074709;28;20901;-84
2023/01/18 10:42:01;;;;;;;2.90;2.57;;;;;;;;;;5074674;28;20440;-83
2023/01/18 10:44:28;;;;;;;2.00;1.80;;;;;;;;;;5078984;28;20437;-84
2023/01/18 10:46:57;;;;;;;1.83;1.70;;;;;;;;;;5079838;28;20964;-84
2023/01/18 10:49:43;;;;;;;4.27;3.87;;;;;;;;;;5074610;28;20387;-84
2023/01/18 10:52:18;;;;;;;1.90;1.60;;;;;;;;;;5074915;28;20817;-84
2023/01/18 10:54:58;;;;;;;1.65;1.55;;;;;;;;;;5074534;28;20375;-84
2023/01/18 10:57:33;;;;;;;1.90;1.70;;;;;;;;;;5074611;28;20854;-84
2023/01/18 11:00:00;;;;;;;1.40;1.30;;;;;;;;;;5074543;28;20967;-85
2023/01/18 11:02:33;;;;;;;1.52;1.42;;;;;;;;;;5074388;28;21133;-85
2023/01/18 11:05:20;;;;;;;1.40;1.30;;;;;;;;;;5053709;28;20955;-85
2023/01/18 11:07:46;;;;;;;2.07;1.60;;;;;;;;;;5050806;28;20449;-84
2023/01/18 11:10:26;;;;;;;2.10;1.50;;;;;;;;;;5068440;28;20388;-85
2023/01/18 11:12:53;;;;;;;2.00;1.80;;;;;;;;;;5071145;28;20436;-85
2023/01/18 11:15:19;;;;;;;2.45;1.92;;;;;;;;;;5070655;28;20372;-84
2023/01/18 11:17:59;;;;;;;2.30;2.10;;;;;;;;;;5074150;28;20375;-84
2023/01/18 11:20:46;;;;;;;2.30;2.10;;;;;;;;;;5061157;28;20482;-84
2023/01/18 11:23:16;;;;;;;2.53;2.33;;;;;;;;;;5074103;28;20428;-83
2023/01/18 11:25:46;;;;;;;1.88;1.77;;;;;;;;;;5067894;28;20523;-84
2023/01/18 11:28:17;;;;;;;3.00;2.30;;;;;;;;;;5068777;28;20435;-84
2023/01/18 11:30:49;;;;;;;3.95;2.03;;;;;;;;;;5067060;28;20433;-84
2023/01/18 11:33:18;;;;;;;2.00;1.90;;;;;;;;;;5073960;28;20420;-84
2023/01/18 11:35:44;;;;;;;2.70;2.50;;;;;;;;;;5055916;28;20913;-84
2023/01/18 11:38:17;;;;;;;2.45;2.25;;;;;;;;;;5055950;28;20466;-84
2023/01/18 11:40:43;;;;;;;1.67;1.58;;;;;;;;;;5073689;28;20440;-85
2023/01/18 11:43:09;;;;;;;1.98;1.77;;;;;;;;;;5073008;28;20376;-84
2023/01/18 11:45:40;;;;;;;2.22;1.85;;;;;;;;;;5072549;28;20411;-85
2023/01/18 11:48:21;;;;;;;2.65;1.58;;;;;;;;;;5073034;28;20429;-84
2023/01/18 11:50:51;;;;;;;2.33;1.85;;;;;;;;;;5073415;28;20781;-83
2023/01/18 11:53:42;;;;;;;2.50;1.58;;;;;;;;;;5073605;28;20459;-84
2023/01/18 11:56:14;;;;;;;1.88;1.70;;;;;;;;;;5073452;28;20895;-84
2023/01/18 11:58:40;;;;;;;2.33;1.90;;;;;;;;;;5073514;28;20436;-84
2023/01/18 12:01:09;;;;;;;2.40;1.92;;;;;;;;;;5073225;28;20432;-84
2023/01/18 12:04:04;;;;;;;2.00;1.60;;;;;;;;;;5055782;28;20910;-84
2023/01/18 12:06:37;;;;;;;3.28;1.73;;;;;;;;;;5051880;28;20471;-84
2023/01/18 12:09:10;;;;;;;2.45;1.98;;;;;;;;;;5073241;28;20421;-85
2023/01/18 12:11:55;;;;;;;1.70;1.60;;;;;;;;;;5072608;28;20435;-85
2023/01/18 12:14:30;;;;;;;3.10;2.50;;;;;;;;;;5055795;28;20390;-84
2023/01/18 12:16:56;;;;;;;3.80;2.83;;;;;;;;;;5067082;28;20462;-84
2023/01/18 12:19:22;;;;;;;2.90;2.60;;;;;;;;;;5054622;28;20425;-85
2023/01/18 12:22:07;;;;;;;2.58;1.77;;;;;;;;;;5072000;28;20726;-84
2023/01/18 12:24:42;;;;;;;2.30;1.83;;;;;;;;;;5064364;28;20427;-83
2023/01/18 12:27:31;;;;;;;2.22;1.80;;;;;;;;;;5058607;28;20413;-83
2023/01/18 12:30:16;;;;;;;2.10;1.65;;;;;;;;;;5056176;28;20463;-83
2023/01/18 12:32:45;;;;;;;3.25;1.70;;;;;;;;;;5066327;28;20380;-84
2023/01/18 12:35:29;;;;;;;3.90;1.60;;;;;;;;;;5067843;28;20871;-84
2023/01/18 12:38:16;;;;;;;2.78;1.70;;;;;;;;;;5066435;28;20384;-85
2023/01/18 12:40:42;;;;;;;2.88;1.33;;;;;;;;;;5071864;28;20380;-84
2023/01/18 12:43:20;;;;;;;2.40;1.90;;;;;;;;;;5074761;28;20387;-84
2023/01/18 12:45:51;;;;;;;2.08;1.80;;;;;;;;;;5071864;28;20477;-85
2023/01/18 12:48:20;;;;;;;2.60;1.88;;;;;;;;;;5072544;28;20420;-83
2023/01/18 12:50:49;;;;;;;2.17;1.70;;;;;;;;;;5067789;28;20477;-84
2023/01/18 12:53:23;;;;;;;2.35;1.83;;;;;;;;;;5072383;28;20376;-85
2023/01/18 12:55:51;;;;;;;2.40;2.10;;;;;;;;;;5072202;28;20473;-84
2023/01/18 12:58:22;;;;;;;3.87;2.10;;;;;;;;;;5071788;28;20463;-84
2023/01/18 13:00:58;;;;;;;3.45;1.98;;;;;;;;;;5071434;28;20916;-85
2023/01/18 13:03:29;;;;;;;2.03;1.80;;;;;;;;;;5072268;28;20484;-84
2023/01/18 13:05:55;;;;;;;3.85;1.80;;;;;;;;;;5063313;28;20939;-85
2023/01/18 13:08:39;;;;;;;3.00;1.83;;;;;;;;;;5072163;28;20421;-84
2023/01/18 13:11:23;;;;;;;4.07;2.00;;;;;;;;;;5071703;28;20962;-84
2023/01/18 13:13:53;;;;;;;3.53;2.00;;;;;;;;;;5071979;28;20866;-84
2023/01/18 13:16:30;;;;;;;3.23;1.70;;;;;;;;;;5071957;28;20595;-84
2023/01/18 13:18:56;;;;;;;3.38;1.50;;;;;;;;;;5069656;28;20436;-84
2023/01/18 13:21:31;;;;;;;3.75;1.77;;;;;;;;;;5071825;28;20714;-83
2023/01/18 13:24:08;;;;;;;1.58;1.42;;;;;;;;;;5068732;28;20431;-84
2023/01/18 13:26:35;;;;;;;1.83;1.47;;;;;;;;;;5071637;28;20551;-84
2023/01/18 13:29:19;;;;;;;2.63;1.70;;;;;;;;;;5071896;28;20462;-84
2023/01/18 13:31:45;;;;;;;2.67;1.80;;;;;;;;;;5071352;28;20440;-84
2023/01/18 13:34:29;;;;;;;2.63;2.08;;;;;;;;;;5071832;28;20372;-84
2023/01/18 13:36:55;;;;;;;3.35;2.08;;;;;;;;;;5071716;28;20417;-84
2023/01/18 13:39:22;;;;;;;3.35;2.13;;;;;;;;;;5071734;28;20379;-84
2023/01/18 13:42:03;;;;;;;2.60;2.00;;;;;;;;;;5071731;28;20456;-84
2023/01/18 13:44:36;;;;;;;3.90;3.42;;;;;;;;;;5068441;28;20420;-84
2023/01/18 13:47:02;;;;;;;13.45;9.55;;;;;;;;;;5071525;28;20425;-84
2023/01/18 13:49:34;;;;;;;4.40;3.67;;;;;;;;;;5071463;28;20901;-83
2023/01/18 13:52:01;;;;;;;2.90;2.50;;;;;;;;;;5071368;28;20372;-83
2023/01/18 13:54:27;;;;;;;9.15;6.45;;;;;;;;;;5071617;28;20378;-84
2023/01/18 13:57:08;;;;;;;6.38;4.90;;;;;;;;;;5071379;28;20783;-84
2023/01/18 13:59:44;;;;;;;15.98;10.73;;;;;;;;;;5071403;28;20428;-85
2023/01/18 14:02:20;;;;;;;2.35;1.88;;;;;;;;;;5071454;28;20441;-84
2023/01/18 14:04:57;;;;;;;3.47;2.30;;;;;;;;;;5068800;28;20413;-84
2023/01/18 14:07:23;;;;;;;2.35;2.03;;;;;;;;;;5066976;28;20590;-84
2023/01/18 14:09:50;;;;;;;3.22;2.40;;;;;;;;;;5071453;28;20775;-84
2023/01/18 14:12:36;;;;;;;4.75;2.83;;;;;;;;;;5075143;28;20379;-84
2023/01/18 14:15:02;;;;;;;2.65;2.38;;;;;;;;;;5075370;28;20375;-84
2023/01/18 14:17:31;;;;;;;2.70;1.90;;;;;;;;;;5057374;28;20861;-84
2023/01/18 14:20:26;;;;;;;3.05;2.28;;;;;;;;;;5075170;28;20423;-84
2023/01/18 14:23:05;;;;;;;4.63;2.47;;;;;;;;;;5074790;28;20800;-84
2023/01/18 14:25:46;;;;;;;2.72;2.13;;;;;;;;;;5075069;28;20420;-84
2023/01/18 14:28:15;;;;;;;3.50;2.15;;;;;;;;;;5075109;28;20506;-84
2023/01/18 14:30:43;;;;;;;2.85;1.95;;;;;;;;;;5057182;28;20909;-83
2023/01/18 14:33:14;;;;;;;2.43;2.07;;;;;;;;;;5075107;28;20917;-84
2023/01/18 14:35:50;;;;;;;3.38;2.20;;;;;;;;;;5075298;28;20390;-84
2023/01/18 14:38:17;;;;;;;2.10;1.73;;;;;;;;;;5077521;28;20444;-84
2023/01/18 14:40:44;;;;;;;2.55;1.77;;;;;;;;;;5085564;28;20383;-85
2023/01/18 14:43:13;;;;;;;2.38;1.98;;;;;;;;;;5074944;28;20387;-84
2023/01/18 14:45:44;;;;;;;2.38;1.80;;;;;;;;;;5056784;28;20453;-84
2023/01/18 14:48:21;;;;;;;2.63;2.00;;;;;;;;;;5074791;28;20387;-84
2023/01/18 14:50:48;;;;;;;2.88;1.80;;;;;;;;;;5074596;28;20467;-84
2023/01/18 14:53:15;;;;;;;2.90;1.98;;;;;;;;;;5074739;28;20452;-84
2023/01/18 14:55:42;;;;;;;2.15;1.95;;;;;;;;;;5074490;28;20417;-84
2023/01/18 14:58:10;;;;;;;2.92;2.10;;;;;;;;;;5074623;28;20395;-84
2023/01/18 15:00:47;;;;;;;3.13;2.70;;;;;;;;;;5074444;28;20443;-84
2023/01/18 15:03:14;;;;;;;3.53;2.00;;;;;;;;;;5074690;28;20380;-84
2023/01/18 15:05:41;;;;;;;1.90;1.80;;;;;;;;;;5065643;28;20413;-84
2023/01/18 15:08:07;;;;;;;4.40;2.17;;;;;;;;;;5074405;28;20416;-84
2023/01/18 15:10:34;;;;;;;5.55;2.55;;;;;;;;;;5074010;28;20408;-84
2023/01/18 15:13:01;;;;;;;1.88;1.60;;;;;;;;;;5071094;28;20379;-84
2023/01/18 15:15:27;;;;;;;2.10;1.83;;;;;;;;;;5074400;28;20372;-83
2023/01/18 15:18:01;;;;;;;4.40;2.00;;;;;;;;;;5074053;28;20937;-84
2023/01/18 15:20:27;;;;;;;3.65;1.88;;;;;;;;;;5074198;28;20374;-85
2023/01/18 15:22:53;;;;;;;3.25;2.10;;;;;;;;;;5055105;28;20753;-84